Flight Track Log - Related Links

Times and Time Zones

All times are in EDT time to prevent confusion due to time zone crossing. See the ASQ5941 flight status page for this flight to view local times or setup timezone preferences in your user account.

Time Position Orientation Groundspeed Altitude Reporting Facility
EDT Latitude Longitude Course Direction KTS MPH feet Rate Location/Type
Tue 06:06:00 PM 41.4186 -75.9303 315° West  Level FlightAware Approximate
Tue 06:06:41 PM 41.3331 -75.9156 North 264 304 7,900  Level New York Center
Tue 06:07:00 PM 41.4657 -76.0147 304° West  Level FlightAware Approximate
Tue 06:07:38 PM 41.3978 -75.9564 335° Northwest 264 304 8,000  Level New York Center
Tue 06:08:00 PM 41.5211 -76.0900 312° West  Level FlightAware Approximate
Tue 06:08:39 PM 41.4700 -75.9731 350° North 259 298 9,600  Level New York Center
Tue 06:09:00 PM 41.5784 -76.1759 312° West  Level FlightAware Approximate
Tue 06:09:41 PM 41.5625 -75.9997 348° North 275 316 10,600  Level New York Center
Tue 06:10:00 PM 41.6311 -76.2669 307° West  Level FlightAware Approximate
Tue 06:10:41 PM 41.6364 -76.0694 325° Northwest 333 383 11,700  Level New York Center
Tue 06:11:00 PM 41.6828 -76.3590 307° West  Level FlightAware Approximate
Tue 06:11:39 PM 41.6750 -76.1864 294° West 336 387 13,000  Level New York Center
Tue 06:12:00 PM 41.7348 -76.4500 North  Level FlightAware Approximate
Tue 06:12:40 PM 41.7053 -76.2972 290° West 342 394 14,400  Level New York Center
Tue 06:13:39 PM 41.7428 -76.4308 291° West 350 403 16,100 1,361 Climbing New York Center
Tue 06:14:39 PM 41.7747 -76.5422 291° West 355 409 17,100 1,041 Climbing New York Center
Tue 06:15:40 PM 41.8064 -76.6617 290° West 355 409 18,200 1,180 Climbing New York Center
Tue 06:16:41 PM 41.8417 -76.7875 291° West 355 409 19,500 1,373 Climbing New York Center
Tue 06:17:38 PM 41.8811 -76.9294 291° West 361 415 20,900 1,333 Climbing Cleveland Center
Tue 06:18:38 PM 41.9164 -77.0586 290° West 368 423 22,100 1,250 Climbing Cleveland Center
Tue 06:19:38 PM 41.9517 -77.1906 290° West 368 423 23,400 1,250 Climbing Cleveland Center
Tue 06:20:38 PM 41.9886 -77.3200 291° West 373 429 24,600 1,250 Climbing Cleveland Center
Tue 06:21:38 PM 42.0236 -77.4497 290° West 373 429 25,900 1,250 Climbing Cleveland Center
Tue 06:22:38 PM 42.0583 -77.5767 290° West 373 429 27,100 1,250 Climbing Cleveland Center
Tue 06:23:38 PM 42.0886 -77.7039 288° West 363 418 28,400 1,250 Climbing Cleveland Center
Tue 06:24:38 PM 42.1208 -77.8228 290° West 358 412 29,600 1,250 Climbing Cleveland Center
Tue 06:25:38 PM 42.1528 -77.9419 290° West 347 399 30,900 1,350 Climbing Cleveland Center
Tue 06:26:38 PM 42.1825 -78.0583 289° West 340 391 32,300 1,350 Climbing Cleveland Center
Tue 06:27:38 PM 42.2119 -78.1694 290° West 335 386 33,600 1,350 Climbing Cleveland Center
Tue 06:28:38 PM 42.2414 -78.2806 290° West 323 372 35,000 1,200 Climbing Cleveland Center
Tue 06:29:38 PM 42.2683 -78.3889 289° West 318 366 36,000 450 Climbing Cleveland Center
Tue 06:30:38 PM 42.2978 -78.5031 289° West 318 366 35,900  Descending Cleveland Center
Tue 06:31:38 PM 42.3267 -78.6200 289° West 325 374 36,000 50 Climbing Cleveland Center
Tue 06:32:38 PM 42.3581 -78.7428 289° West 338 389 36,000  Level Cleveland Center
Tue 06:33:38 PM 42.3933 -78.8711 290° West 351 404 36,000  Level Cleveland Center
Tue 06:34:38 PM 42.4222 -78.9969 287° West 351 404 36,000  Level Cleveland Center
Tue 06:35:38 PM 42.4531 -79.1200 289° West 357 411 36,000  Level Cleveland Center
Tue 06:36:38 PM 42.4858 -79.2458 289° West 357 411 36,000  Level Cleveland Center
Tue 06:37:38 PM 42.4997 -79.3750 278° West 357 411 36,000  Level Cleveland Center
Tue 06:38:38 PM 42.5031 -79.5017 272° West 351 404 36,000  Level Cleveland Center
Tue 06:39:38 PM 42.5083 -79.6311 273° West 351 404 36,000  Level Cleveland Center
Tue 06:40:38 PM 42.5178 -79.7606 276° West 351 404 36,000  Level Cleveland Center
Tue 06:41:38 PM 42.5250 -79.8958 274° West 351 404 36,000  Level Cleveland Center
Tue 06:42:38 PM 42.5256 -80.0197 270° West 357 411 36,000  Level Cleveland Center
Tue 06:43:38 PM 42.5325 -80.1550 274° West 362 417 36,000  Level Cleveland Center
Tue 06:44:38 PM 42.5369 -80.2872 273° West 362 417 36,000  Level Cleveland Center
Tue 06:45:38 PM 42.5436 -80.4283 274° West 355 409 36,000  Level Cleveland Center
Tue 06:46:38 PM 42.5478 -80.5606 272° West 355 409 36,000  Level Cleveland Center
Tue 06:48:00 PM 42.5531 -80.7368 282° West  Level FlightAware Approximate
Tue 06:48:38 PM 42.5642 -80.8228 282° West 349 402 36,000  Level Cleveland Center
Tue 06:49:39 PM 42.5847 -80.9583 282° West 354 407 36,000  Level Cleveland Center
Tue 06:50:38 PM 42.6028 -81.0881 281° West 359 413 36,000  Level Cleveland Center
Tue 06:51:38 PM 42.6253 -81.2181 283° West 354 407 36,000  Level Cleveland Center
Tue 06:52:38 PM 42.6494 -81.3397 285° West 343 395 36,000  Level Cleveland Center
Tue 06:53:38 PM 42.6986 -81.4561 300° West 343 395 36,000  Level Cleveland Center
Tue 06:54:38 PM 42.7353 -81.5753 293° West 343 395 36,000  Level Cleveland Center
Tue 06:55:38 PM 42.7528 -81.7086 280° West 343 395 36,000  Level Cleveland Center
Tue 06:56:38 PM 42.7700 -81.8475 280° West 364 419 36,000  Level Cleveland Center
Tue 06:57:38 PM 42.7792 -81.9636 276° West 364 419 36,000  Level Cleveland Center
Tue 06:58:38 PM 42.7942 -82.0969 279° West 364 419 36,000  Level Cleveland Center
Tue 06:59:38 PM 42.8111 -82.2275 280° West 364 419 36,000  Level Cleveland Center
Tue 07:00:38 PM 42.8236 -82.3608 277° West 364 419 36,000  Level Cleveland Center
Tue 07:01:38 PM 42.8381 -82.4972 278° West 364 419 36,000  Level Cleveland Center
Tue 07:02:38 PM 42.8464 -82.6306 275° West 364 419 36,000  Level Cleveland Center
Tue 07:03:38 PM 42.8500 -82.7667 272° West 364 419 36,000  Level Cleveland Center
Tue 07:04:38 PM 42.8536 -82.9000 272° West 364 419 36,000  Level Cleveland Center
Tue 07:05:38 PM 42.8572 -83.0331 272° West 364 419 36,000 -150 Level Cleveland Center
Tue 07:06:38 PM 42.8606 -83.1664 272° West 364 419 35,700 -600 Descending Cleveland Center
Tue 07:07:38 PM 42.8617 -83.2967 271° West 364 419 34,800 -950 Descending Cleveland Center
Tue 07:08:38 PM 42.8647 -83.4328 272° West 364 419 33,800 -1,000 Descending Cleveland Center
Tue 07:09:38 PM 42.8675 -83.5719 272° West 369 425 32,800 -900 Descending Cleveland Center
Tue 07:10:38 PM 42.8700 -83.7081 271° West 369 425 32,000 -400 Descending Cleveland Center
Tue 07:11:38 PM 42.8703 -83.8497 270° West 369 425 32,000  Level Cleveland Center
Tue 07:12:38 PM 42.8664 -83.9883 268° West 369 425 32,000  Level Cleveland Center
Tue 07:13:38 PM 42.8600 -84.1267 266° West 364 419 32,000  Level Cleveland Center
Tue 07:14:38 PM 42.8517 -84.2650 265° West 364 419 32,000  Level Cleveland Center
Tue 07:16:55 PM 42.8383 -84.5750 267° West 371 427 32,000  Level Chicago Center
Tue 07:17:57 PM 42.8294 -84.7433 266° West 373 429 32,000  Level Chicago Center
Tue 07:18:59 PM 42.8222 -84.8839 266° West 372 428 32,000  Level Chicago Center
Tue 07:20:01 PM 42.8136 -85.0256 265° West 376 433 32,000 -339 Level Chicago Center
Tue 07:21:03 PM 42.8058 -85.1650 266° West 372 428 31,300 -1,065 Descending Chicago Center
Tue 07:22:05 PM 42.7978 -85.3006 265° West 363 418 29,800 -1,403 Descending Chicago Center
Tue 07:23:07 PM 42.7900 -85.4361 266° West 360 414 28,400 -1,403 Descending Chicago Center
Tue 07:24:09 PM 42.7736 -85.5700 261° West 358 412 26,900 -1,597 Descending Chicago Center
Tue 07:25:11 PM 42.7456 -85.7217 256° West 347 399 25,100 -1,597 Descending Chicago Center
Tue 07:26:13 PM 42.7231 -85.8464 256° West 341 392 23,600 -1,403 Descending Chicago Center
Tue 07:27:15 PM 42.7011 -85.9686 256° West 334 384 22,200 -1,415 Descending Chicago Center
Tue 07:28:16 PM 42.6792 -86.0875 256° West 326 375 20,700 -1,073 Descending Chicago Center
Tue 07:29:18 PM 42.6586 -86.2011 256° West 312 359 20,000 -339 Descending Chicago Center
Tue 07:30:20 PM 42.6381 -86.3139 256° West 307 353 20,000  Level Chicago Center
Tue 07:31:22 PM 42.6136 -86.4381 255° West 339 390 20,000 -629 Level Chicago Center
Tue 07:32:24 PM 42.5900 -86.5653 256° West 347 399 18,700 -2,371 Descending Chicago Center
Tue 07:33:26 PM 42.5642 -86.7011 256° West 313 360 15,100 -2,952 Descending Chicago Center
Tue 07:34:28 PM 42.5378 -86.8114 252° West 311 358 12,600 -2,274 Descending Chicago Center
Tue 07:35:30 PM 42.5081 -86.9167 249° West 303 349 10,400 -1,452 Descending Chicago Center
Tue 07:36:32 PM 42.4844 -87.0092 251° West 262 302 9,600 -677 Descending Chicago Center
Tue 07:37:34 PM 42.4583 -87.0942 247° West 245 282 9,000 -228 Descending Chicago Center
Tue 07:39:10 PM 42.4167 -87.2500 250° West 250 288 9,000 -146 Level Chicago TRACON
Tue 07:39:37 PM 42.4067 -87.2878 250° West 249 287 8,700 -876 Descending Chicago Center
Tue 07:40:39 PM 42.3808 -87.3764 248° West 254 292 7,700 -968 Descending Chicago Center
Tue 07:41:41 PM 42.3575 -87.4658 251° West 248 285 6,700 -823 Descending Chicago Center
Tue 07:42:43 PM 42.3136 -87.4958 207° Southwest 223 257 6,000 -581 Descending Chicago Center
Tue 07:43:45 PM 42.2547 -87.4728 164° South 220 253 5,500 -829 Descending Chicago Center
Tue 07:44:46 PM 42.1811 -87.4636 175° South 225 259 4,300 -732 Descending Chicago Center
Tue 07:45:48 PM 42.1164 -87.4511 172° South 229 264 4,000 -212 Descending Chicago Center
Tue 07:46:11 PM 42.0833 -87.4500 179° South 236 272 4,000  Level Chicago TRACON
Tue 07:47:11 PM 42.0167 -87.4500 180° South 245 282 4,000 50 Level Chicago TRACON
Tue 07:48:11 PM 41.9833 -87.5000 228° Southwest 177 204 4,100  Climbing Chicago TRACON
Tue 07:49:11 PM 41.9833 -87.5667 270° West 161 185 4,000 -50 Descending Chicago TRACON
Tue 07:50:11 PM 41.9833 -87.6167 270° West 161 185 4,000 -100 Level Chicago TRACON
Tue 07:51:11 PM 41.9833 -87.6833 270° West 158 182 3,800 -200 Descending Chicago TRACON

Login

Don't have an account? Register now (free) for customized features, flight alerts, and more!